Time;durP1;ratioP1;P1;durP2;ratioP2;P2;SDS_P1;SDS_P2;PMS_P1;PMS_P2;Temp;Humidity;BMP_temperature;BMP_pressure;BME280_temperature;BME280_humidity;BME280_pressure;Samples;Min_cycle;Max_cycle;Signal;HPM_P1;HPM_P2
2021/11/10 00:06:12;;;;;;;;;;;;;;;11.67;100.00;101516.31;4903597;29;19927;-82
2021/11/10 00:08:37;;;;;;;;;;;;;;;11.67;100.00;101518.16;4866384;29;19916;-81
2021/11/10 00:11:02;;;;;;;;;;;;;;;11.68;100.00;101520.66;4884218;29;19990;-81
2021/11/10 00:13:28;;;;;;;;;;;;;;;11.69;100.00;101522.34;4884022;29;19942;-81
2021/11/10 00:15:53;;;;;;;;;;;;;;;11.69;100.00;101513.44;4894649;29;19922;-81
2021/11/10 00:18:19;;;;;;;;;;;;;;;11.68;100.00;101514.44;4882260;29;19950;-80
2021/11/10 00:20:44;;;;;;;;;;;;;;;11.68;100.00;101523.34;4882130;29;19931;-82
2021/11/10 00:23:10;;;;;;;;;;;;;;;11.66;100.00;101522.72;4867200;29;20334;-81
2021/11/10 00:25:35;;;;;;;;;;;;;;;11.65;100.00;101515.63;4872352;29;19948;-81
2021/11/10 00:28:00;;;;;;;;;;;;;;;11.65;100.00;101523.72;5419629;24;19924;-79
2021/11/10 00:30:27;;;;;;;;;;;;;;;11.64;100.00;101513.97;4864856;29;19923;-81
2021/11/10 00:32:53;;;;;;;;;;;;;;;11.63;100.00;101523.09;4882115;29;19936;-81
2021/11/10 00:35:19;;;;;;;;;;;;;;;11.63;100.00;101523.09;4873517;29;19924;-81
2021/11/10 00:37:45;;;;;;;;;;;;;;;11.59;100.00;101520.94;4861159;29;19947;-80
2021/11/10 00:40:10;;;;;;;;;;;;;;;11.60;100.00;101522.66;4858777;29;19923;-81
2021/11/10 00:42:36;;;;;;;;;;;;;;;11.60;100.00;101517.25;4865153;29;19920;-80
2021/11/10 00:45:02;;;;;;;;;;;;;;;11.56;100.00;101522.19;4884019;29;19896;-82
2021/11/10 00:47:27;;;;;;;;;;;;;;;11.55;100.00;101530.44;4881966;29;20334;-82
2021/11/10 00:49:53;;;;;;;;;;;;;;;11.53;100.00;101525.25;4881811;29;19916;-81
2021/11/10 00:52:18;;;;;;;;;;;;;;;11.51;100.00;101524.59;4889525;29;19900;-80
2021/11/10 00:54:43;;;;;;;;;;;;;;;11.51;100.00;101521.91;4860021;29;19946;-82
2021/11/10 00:57:08;;;;;;;;;;;;;;;11.46;100.00;101516.25;4863752;29;19964;-81
2021/11/10 00:59:34;;;;;;;;;;;;;;;11.45;100.00;101518.09;4866190;29;19905;-81
2021/11/10 01:01:59;;;;;;;;;;;;;;;11.47;100.00;101526.00;4863576;29;19927;-81
2021/11/10 01:04:24;;;;;;;;;;;;;;;11.46;100.00;101521.66;4862441;29;19916;-81
2021/11/10 01:06:50;;;;;;;;;;;;;;;11.47;100.00;101513.34;4865618;29;19916;-81
2021/11/10 01:09:18;;;;;;;;;;;;;;;11.48;100.00;101515.03;4844467;29;19976;-80
2021/11/10 01:11:47;;;;;;;;;;;;;;;11.45;100.00;101519.94;4827599;29;19959;-81
2021/11/10 01:14:13;;;;;;;;;;;;;;;11.41;100.00;101513.28;4828351;29;19980;-81
2021/11/10 01:16:38;;;;;;;;;;;;;;;11.37;100.00;101520.06;4838388;29;19917;-81
2021/11/10 01:19:04;;;;;;;;;;;;;;;11.02;100.00;101528.69;4863699;29;20068;-81
2021/11/10 01:21:30;;;;;;;;;;;;;;;10.84;100.00;101519.28;4862856;29;19950;-82
2021/11/10 01:23:55;;;;;;;;;;;;;;;10.78;100.00;101518.16;4861021;29;19912;-82
2021/11/10 01:26:20;;;;;;;;;;;;;;;10.76;100.00;101525.56;4863992;29;19927;-80
2021/11/10 01:28:46;;;;;;;;;;;;;;;10.76;100.00;101521.06;4847910;29;20328;-82
2021/11/10 01:31:11;;;;;;;;;;;;;;;10.75;100.00;101524.75;4864714;29;19940;-82
2021/11/10 01:33:37;;;;;;;;;;;;;;;10.74;100.00;101523.06;4865257;29;19921;-81
2021/11/10 01:36:02;;;;;;;;;;;;;;;10.82;100.00;101528.38;4875804;29;19923;-81
2021/11/10 01:38:28;;;;;;;;;;;;;;;10.89;100.00;101524.94;4852308;29;20317;-82
2021/11/10 01:40:54;;;;;;;;;;;;;;;10.91;100.00;101525.63;4863987;29;19913;-82
2021/11/10 01:43:19;;;;;;;;;;;;;;;11.05;100.00;101519.41;4873988;29;20002;-81
2021/11/10 01:45:46;;;;;;;;;;;;;;;10.95;100.00;101519.66;4882141;29;19916;-82
2021/11/10 01:48:11;;;;;;;;;;;;;;;11.11;100.00;101517.84;4876641;29;19897;-82
2021/11/10 01:50:37;;;;;;;;;;;;;;;11.17;100.00;101512.53;4864251;29;19988;-81
2021/11/10 01:53:02;;;;;;;;;;;;;;;11.18;100.00;101511.50;4862948;29;19912;-81
2021/11/10 01:55:27;;;;;;;;;;;;;;;11.22;100.00;101507.41;4876951;29;19923;-81
2021/11/10 01:57:53;;;;;;;;;;;;;;;11.20;100.00;101509.47;4872763;29;19984;-81
2021/11/10 02:00:29;;;;;;;;;;;;;;;11.18;100.00;101508.81;4832207;29;19917;-82
2021/11/10 02:02:56;;;;;;;;;;;;;;;11.19;100.00;101515.91;4852151;29;19920;-81
2021/11/10 02:05:22;;;;;;;;;;;;;;;11.21;100.00;101513.00;4850840;29;19931;-81
2021/11/10 02:07:48;;;;;;;;;;;;;;;11.19;100.00;101515.03;4867491;29;19944;-82
2021/11/10 02:10:15;;;;;;;;;;;;;;;11.20;100.00;101512.16;4866888;29;20237;-81
2021/11/10 02:12:41;;;;;;;;;;;;;;;11.22;100.00;101510.09;4885070;29;19951;-82
2021/11/10 02:15:08;;;;;;;;;;;;;;;11.23;100.00;101514.50;4869685;29;19951;-82
2021/11/10 02:17:35;;;;;;;;;;;;;;;11.25;100.00;101512.44;4885183;29;19946;-83
2021/11/10 02:20:01;;;;;;;;;;;;;;;11.24;100.00;101502.69;4890784;29;19904;-82
2021/11/10 02:22:26;;;;;;;;;;;;;;;11.23;100.00;101508.28;4883593;29;19928;-81
2021/11/10 02:24:51;;;;;;;;;;;;;;;11.27;100.00;101502.31;4872416;29;19905;-84
2021/11/10 02:27:27;;;;;;;;;;;;;;;11.27;100.00;101496.94;4856248;29;19929;-82
2021/11/10 02:29:52;;;;;;;;;;;;;;;11.22;100.00;101490.41;4885741;29;19923;-82
2021/11/10 02:32:18;;;;;;;;;;;;;;;11.30;100.00;101487.63;4885875;29;19999;-81
2021/11/10 02:34:45;;;;;;;;;;;;;;;11.31;100.00;101481.22;4856191;29;20304;-82
2021/11/10 02:37:14;;;;;;;;;;;;;;;11.34;100.00;101488.94;4849965;29;19919;-82
2021/11/10 02:39:39;;;;;;;;;;;;;;;11.36;100.00;101477.97;4871902;29;19990;-82
2021/11/10 02:42:05;;;;;;;;;;;;;;;11.44;100.00;101469.78;4868892;29;19916;-82
2021/11/10 02:44:31;;;;;;;;;;;;;;;11.43;100.00;101468.94;4865777;29;19912;-82
2021/11/10 02:46:56;;;;;;;;;;;;;;;11.47;100.00;101470.25;4868080;29;19920;-82
2021/11/10 02:49:22;;;;;;;;;;;;;;;11.44;100.00;101470.63;4868374;29;19923;-82
2021/11/10 02:51:54;;;;;;;;;;;;;;;11.46;100.00;101470.44;4880775;29;20365;-82
2021/11/10 02:54:19;;;;;;;;;;;;;;;11.50;100.00;101469.88;4885365;29;19912;-81
2021/11/10 02:56:44;;;;;;;;;;;;;;;11.10;100.00;101470.38;4870594;29;19916;-81
2021/11/10 02:59:10;;;;;;;;;;;;;;;11.39;100.00;101462.28;4866190;29;19954;-80
2021/11/10 03:01:35;;;;;;;;;;;;;;;11.47;100.00;101464.84;4873490;29;19940;-82
2021/11/10 03:04:00;;;;;;;;;;;;;;;11.45;100.00;101453.41;4860012;29;19920;-81
2021/11/10 03:06:26;;;;;;;;;;;;;;;11.47;100.00;101464.00;4879752;29;19916;-81
2021/11/10 03:08:51;;;;;;;;;;;;;;;11.47;100.00;101455.94;4877959;29;20011;-82
2021/11/10 03:11:16;;;;;;;;;;;;;;;11.49;100.00;101457.41;4877173;29;19934;-80
2021/11/10 03:13:42;;;;;;;;;;;;;;;11.50;100.00;101461.78;4889259;29;19923;-81
2021/11/10 03:16:08;;;;;;;;;;;;;;;11.52;100.00;101456.19;4891988;29;19931;-81
2021/11/10 03:18:33;;;;;;;;;;;;;;;11.51;100.00;101446.44;4863696;29;19939;-82
2021/11/10 03:20:58;;;;;;;;;;;;;;;11.52;100.00;101462.44;4859172;29;19969;-80
2021/11/10 03:23:23;;;;;;;;;;;;;;;11.51;100.00;101455.34;4843260;29;19926;-81
2021/11/10 03:25:49;;;;;;;;;;;;;;;11.53;100.00;101455.19;4861241;29;19916;-82
2021/11/10 03:28:14;;;;;;;;;;;;;;;11.52;100.00;101456.19;4865988;29;19935;-81
2021/11/10 03:30:39;;;;;;;;;;;;;;;11.53;100.00;101452.47;4875633;29;19916;-81
2021/11/10 03:33:04;;;;;;;;;;;;;;;11.55;100.00;101452.28;4880465;29;19959;-82
2021/11/10 03:35:30;;;;;;;;;;;;;;;11.55;100.00;101454.97;4878916;29;19929;-81
2021/11/10 03:37:55;;;;;;;;;;;;;;;11.52;100.00;101442.72;4868451;29;19908;-81
2021/11/10 03:40:20;;;;;;;;;;;;;;;11.54;100.00;101454.16;4874514;29;19909;-82
2021/11/10 03:42:46;;;;;;;;;;;;;;;11.55;100.00;101461.19;4867623;29;19913;-81
2021/11/10 03:45:11;;;;;;;;;;;;;;;11.56;100.00;101454.81;4861246;29;19980;-81
2021/11/10 03:47:37;;;;;;;;;;;;;;;11.56;100.00;101454.81;4863688;29;19928;-82
2021/11/10 03:50:03;;;;;;;;;;;;;;;11.58;100.00;101457.28;4847110;29;19941;-81
2021/11/10 03:52:28;;;;;;;;;;;;;;;11.55;100.00;101455.81;4862782;29;19916;-81
2021/11/10 03:54:54;;;;;;;;;;;;;;;11.56;100.00;101452.09;4877834;29;19961;-81
2021/11/10 03:57:19;;;;;;;;;;;;;;;11.62;100.00;101456.75;4874276;29;19919;-81
2021/11/10 03:59:44;;;;;;;;;;;;;;;11.60;100.00;101463.34;4875547;29;20169;-82
2021/11/10 04:02:10;;;;;;;;;;;;;;;11.61;100.00;101460.44;4875690;29;19912;-81
2021/11/10 04:04:36;;;;;;;;;;;;;;;11.60;100.00;101449.88;4859997;29;19900;-80
2021/11/10 04:07:01;;;;;;;;;;;;;;;11.58;100.00;101458.13;4879807;29;20307;-81
2021/11/10 04:09:27;;;;;;;;;;;;;;;11.58;100.00;101463.50;4876617;29;20018;-81
2021/11/10 04:11:52;;;;;;;;;;;;;;;11.60;100.00;101464.19;4857659;29;19916;-81
2021/11/10 04:14:18;;;;;;;;;;;;;;;11.58;100.00;101471.59;4839078;29;19924;-81
2021/11/10 04:16:43;;;;;;;;;;;;;;;11.55;100.00;101468.44;4855599;29;19912;-81
2021/11/10 04:19:08;;;;;;;;;;;;;;;11.56;100.00;101472.84;4844667;29;19936;-80
2021/11/10 04:21:34;;;;;;;;;;;;;;;11.52;100.00;101464.25;4876278;29;19930;-81
2021/11/10 04:23:59;;;;;;;;;;;;;;;11.52;100.00;101475.91;4874231;29;19912;-80
2021/11/10 04:26:26;;;;;;;;;;;;;;;11.52;100.00;101465.13;4855865;29;19917;-81
2021/11/10 04:28:53;;;;;;;;;;;;;;;11.52;100.00;101469.66;4838603;29;19925;-80
2021/11/10 04:31:19;;;;;;;;;;;;;;;11.51;100.00;101462.59;4833294;29;19917;-81
2021/11/10 04:33:45;;;;;;;;;;;;;;;11.53;100.00;101463.25;4834672;29;20264;-81
2021/11/10 04:36:10;;;;;;;;;;;;;;;11.52;100.00;101461.56;4834848;29;19927;-81
2021/11/10 04:38:36;;;;;;;;;;;;;;;11.51;100.00;101457.22;4833786;29;20398;-81
2021/11/10 04:41:01;;;;;;;;;;;;;;;11.52;100.00;101458.88;4835611;29;19981;-81
2021/11/10 04:43:27;;;;;;;;;;;;;;;11.54;100.00;101464.94;4836108;29;19940;-81
2021/11/10 04:46:02;;;;;;;;;;;;;;;11.54;100.00;101459.53;4834178;29;19913;-81
2021/11/10 04:48:28;;;;;;;;;;;;;;;11.53;100.00;101449.78;4857602;29;19901;-81
2021/11/10 04:50:53;;;;;;;;;;;;;;;11.55;100.00;101458.50;4846638;29;19920;-81
2021/11/10 04:53:20;;;;;;;;;;;;;;;11.57;100.00;101451.06;4852909;29;19924;-80
2021/11/10 04:55:45;;;;;;;;;;;;;;;11.58;100.00;101450.03;4832826;29;19984;-81
2021/11/10 04:58:10;;;;;;;;;;;;;;;11.54;100.00;101462.22;4842569;29;19951;-81
2021/11/10 05:00:35;;;;;;;;;;;;;;;11.56;100.00;101454.81;4818576;29;19949;-81
2021/11/10 05:03:01;;;;;;;;;;;;;;;11.53;100.00;101460.56;4832550;29;20006;-80
2021/11/10 05:05:26;;;;;;;;;;;;;;;11.56;100.00;101451.28;4835626;29;20028;-81
2021/11/10 05:07:51;;;;;;;;;;;;;;;11.58;100.00;101452.72;4835871;29;20332;-81
2021/11/10 05:10:18;;;;;;;;;;;;;;;11.59;100.00;101446.34;4842047;29;19908;-82
2021/11/10 05:12:43;;;;;;;;;;;;;;;11.58;100.00;101449.22;4851213;29;19920;-81
2021/11/10 05:15:09;;;;;;;;;;;;;;;11.60;100.00;101448.00;4837819;29;19955;-81
2021/11/10 05:17:34;;;;;;;;;;;;;;;11.62;100.00;101445.97;4854933;29;19943;-82
2021/11/10 05:19:59;;;;;;;;;;;;;;;11.62;100.00;101440.56;4848045;29;19988;-83
2021/11/10 05:22:25;;;;;;;;;;;;;;;11.63;100.00;101455.72;4863981;24;19939;-81
2021/11/10 05:24:50;;;;;;;;;;;;;;;11.64;100.00;101456.53;4865312;29;19933;-82
2021/11/10 05:27:16;;;;;;;;;;;;;;;11.63;100.00;101446.78;4865091;29;19916;-81
2021/11/10 05:29:41;;;;;;;;;;;;;;;11.64;100.00;101445.75;4866663;29;19936;-80
2021/11/10 05:32:08;;;;;;;;;;;;;;;11.67;100.00;101442.69;4866766;29;19955;-82
2021/11/10 05:34:33;;;;;;;;;;;;;;;11.67;100.00;101442.69;4877301;29;19927;-80
2021/11/10 05:36:59;;;;;;;;;;;;;;;11.66;100.00;101439.16;4854736;29;19913;-82
2021/11/10 05:39:24;;;;;;;;;;;;;;;11.67;100.00;101435.44;4860706;29;19928;-80
2021/11/10 05:41:49;;;;;;;;;;;;;;;11.65;100.00;101434.78;4835552;29;19983;-81
2021/11/10 05:44:15;;;;;;;;;;;;;;;11.65;100.00;101428.53;4851013;29;19913;-81
2021/11/10 05:46:41;;;;;;;;;;;;;;;11.48;100.00;101441.41;4860867;29;20001;-81
2021/11/10 05:49:06;;;;;;;;;;;;;;;11.21;100.00;101437.56;4865974;29;19934;-82
2021/11/10 05:51:32;;;;;;;;;;;;;;;11.71;100.00;101438.56;4869267;29;19916;-82
2021/11/10 05:53:57;;;;;;;;;;;;;;;11.60;100.00;101429.13;4862350;29;19900;-84
2021/11/10 05:56:24;;;;;;;;;;;;;;;11.73;100.00;101429.28;4872684;29;19924;-83
2021/11/10 06:01:25;;;;;;;;;;;;;;;11.70;100.00;101431.53;5160558;24;19923;-79
2021/11/10 06:03:52;;;;;;;;;;;;;;;11.69;100.00;101436.09;4865959;29;19925;-83
2021/11/10 06:06:17;;;;;;;;;;;;;;;11.70;100.00;101443.13;4870663;29;19915;-83
2021/11/10 06:11:17;;;;;;;;;;;;;;;11.71;100.00;101439.41;5083515;24;19953;-82
2021/11/10 06:13:43;;;;;;;;;;;;;;;11.82;100.00;101434.53;5050455;23;19948;-79
2021/11/10 06:16:08;;;;;;;;;;;;;;;11.86;100.00;101433.19;4842097;29;19923;-79
2021/11/10 06:18:34;;;;;;;;;;;;;;;11.91;100.00;101433.41;4854764;29;19924;-81
2021/11/10 06:21:00;;;;;;;;;;;;;;;11.84;100.00;101436.03;4856242;29;19943;-81
2021/11/10 06:23:25;;;;;;;;;;;;;;;11.84;100.00;101441.44;4846116;29;19923;-79
2021/11/10 06:25:51;;;;;;;;;;;;;;;11.88;100.00;101439.19;4853151;29;19917;-80
2021/11/10 06:28:16;;;;;;;;;;;;;;;11.89;100.00;101444.41;4860298;29;20310;-80
2021/11/10 06:30:42;;;;;;;;;;;;;;;11.85;100.00;101447.66;4861361;29;19917;-81
2021/11/10 06:33:07;;;;;;;;;;;;;;;11.87;100.00;101456.41;4846453;29;19908;-81
2021/11/10 06:35:33;;;;;;;;;;;;;;;11.83;100.00;101455.09;4863444;29;19921;-81
2021/11/10 06:37:59;;;;;;;;;;;;;;;11.76;100.00;101445.06;4865739;29;19957;-81
2021/11/10 06:40:24;;;;;;;;;;;;;;;11.37;100.00;101445.44;4868265;29;19980;-81
2021/11/10 06:42:50;;;;;;;;;;;;;;;11.23;100.00;101452.53;4866732;29;19920;-80
2021/11/10 06:45:15;;;;;;;;;;;;;;;11.51;100.00;101449.13;4866978;29;19912;-82
2021/11/10 06:47:41;;;;;;;;;;;;;;;11.50;100.00;101453.69;4872025;29;19920;-82
2021/11/10 06:50:06;;;;;;;;;;;;;;;11.53;100.00;101449.78;4851616;29;19921;-82
2021/11/10 06:52:32;;;;;;;;;;;;;;;11.54;100.00;101446.06;4864225;29;19931;-80
2021/11/10 06:54:57;;;;;;;;;;;;;;;11.66;100.00;101441.03;4858492;29;19920;-80
2021/11/10 06:57:25;;;;;;;;;;;;;;;11.69;100.00;101443.34;4868780;29;19925;-80
2021/11/10 06:59:50;;;;;;;;;;;;;;;11.69;100.00;101443.34;4855947;29;20326;-80
2021/11/10 07:02:15;;;;;;;;;;;;;;;11.70;100.00;101443.13;4844724;29;19960;-80
2021/11/10 07:04:40;;;;;;;;;;;;;;;11.73;100.00;101448.16;4860995;29;19916;-80
2021/11/10 07:07:06;;;;;;;;;;;;;;;11.70;100.00;101443.13;4860412;29;19964;-80
2021/11/10 07:09:32;;;;;;;;;;;;;;;11.72;100.00;101451.00;4865209;29;19935;-82
2021/11/10 07:11:57;;;;;;;;;;;;;;;11.71;100.00;101458.28;4873728;29;19912;-81
2021/11/10 07:14:23;;;;;;;;;;;;;;;11.71;100.00;101449.34;4870917;29;19928;-81
2021/11/10 07:16:49;;;;;;;;;;;;;;;11.69;100.00;101444.16;4873802;29;19947;-82
2021/11/10 07:19:14;;;;;;;;;;;;;;;11.71;100.00;101446.66;4862339;29;19920;-82
2021/11/10 07:21:39;;;;;;;;;;;;;;;11.71;100.00;101444.78;4866846;29;19908;-81
2021/11/10 07:24:05;;;;;;;;;;;;;;;11.71;100.00;101438.56;4868959;29;19916;-82
2021/11/10 07:29:05;;;;;;;;;;;;;;;11.73;100.00;101460.78;5101712;24;19999;-82
2021/11/10 07:34:06;;;;;;;;;;;;;;;11.72;100.00;101449.19;5337146;24;19924;-81
2021/11/10 07:36:31;;;;;;;;;;;;;;;11.77;100.00;101456.69;4853240;29;19943;-82
2021/11/10 07:38:57;;;;;;;;;;;;;;;11.76;100.00;101458.56;4866391;29;19982;-81
2021/11/10 07:41:26;;;;;;;;;;;;;;;11.77;100.00;101460.22;4871397;29;19932;-81
2021/11/10 07:43:53;;;;;;;;;;;;;;;11.79;100.00;101461.88;4868553;29;19904;-80
2021/11/10 07:46:19;;;;;;;;;;;;;;;11.77;100.00;101459.38;4870936;29;19956;-82
2021/11/10 07:48:47;;;;;;;;;;;;;;;11.77;100.00;101462.91;4861529;29;19931;-82
2021/11/10 07:51:12;;;;;;;;;;;;;;;11.83;100.00;101477.50;4867156;29;19904;-80
2021/11/10 07:53:37;;;;;;;;;;;;;;;11.86;100.00;101473.63;4848454;29;19989;-82
2021/11/10 07:56:03;;;;;;;;;;;;;;;11.88;100.00;101471.56;4866984;29;19927;-81
2021/11/10 07:58:29;;;;;;;;;;;;;;;11.93;100.00;101472.66;4865729;29;19992;-82
2021/11/10 08:00:54;;;;;;;;;;;;;;;11.95;100.00;101484.09;4866315;29;19924;-81
2021/11/10 08:03:19;;;;;;;;;;;;;;;12.01;100.00;101473.56;4852352;29;19948;-82
2021/11/10 08:05:45;;;;;;;;;;;;;;;12.01;100.00;101469.00;4865959;29;19961;-82
2021/11/10 08:08:10;;;;;;;;;;;;;;;12.04;100.00;101479.41;4854216;29;19935;-82
2021/11/10 08:10:36;;;;;;;;;;;;;;;12.00;100.00;101475.41;4847983;29;19916;-82
2021/11/10 08:13:01;;;;;;;;;;;;;;;12.05;100.00;101478.34;4848031;29;19933;-82
2021/11/10 08:15:26;;;;;;;;;;;;;;;12.11;100.00;101476.75;4861896;29;19912;-82
2021/11/10 08:17:52;;;;;;;;;;;;;;;12.13;100.00;101463.94;4864931;29;19908;-82
2021/11/10 08:20:17;;;;;;;;;;;;;;;12.16;100.00;101469.78;4868310;29;19954;-82
2021/11/10 08:22:44;;;;;;;;;;;;;;;12.15;100.00;101473.50;4867387;29;19944;-82
2021/11/10 08:25:10;;;;;;;;;;;;;;;12.16;100.00;101477.03;4864497;29;19903;-82
2021/11/10 08:27:36;;;;;;;;;;;;;;;12.18;100.00;101472.25;4868044;29;19905;-81
2021/11/10 08:30:05;;;;;;;;;;;;;;;12.25;100.00;101485.81;4865000;29;19972;-82
2021/11/10 08:32:30;;;;;;;;;;;;;;;12.28;100.00;101486.25;4854105;29;19928;-81
2021/11/10 08:34:55;;;;;;;;;;;;;;;12.27;100.00;101486.47;4860581;29;19925;-80
2021/11/10 08:37:21;;;;;;;;;;;;;;;12.28;100.00;101493.53;4861488;29;19924;-81
2021/11/10 08:39:47;;;;;;;;;;;;;;;12.29;100.00;101484.44;4865419;29;19940;-82
2021/11/10 08:42:13;;;;;;;;;;;;;;;12.37;100.00;101486.97;4864581;29;19904;-81
2021/11/10 08:44:44;;;;;;;;;;;;;;;12.39;100.00;101474.97;4865204;29;19924;-81
2021/11/10 08:47:09;;;;;;;;;;;;;;;12.39;100.00;101458.78;4869472;29;19954;-82
2021/11/10 08:49:35;;;;;;;;;;;;;;;12.40;100.00;101455.03;4866048;29;20016;-81
2021/11/10 08:52:00;;;;;;;;;;;;;;;12.40;100.00;101456.91;4866273;29;19916;-82
2021/11/10 08:54:26;;;;;;;;;;;;;;;12.44;100.00;101455.47;4850011;29;19968;-82
2021/11/10 08:56:53;;;;;;;;;;;;;;;12.44;100.00;101472.50;4862996;29;19975;-82
2021/11/10 08:59:18;;;;;;;;;;;;;;;12.45;100.00;101468.78;4862238;29;19917;-82
2021/11/10 09:01:43;;;;;;;;;;;;;;;12.45;100.00;101468.78;4860520;29;19920;-80
2021/11/10 09:04:09;;;;;;;;;;;;;;;12.45;100.00;101478.75;5074241;24;19912;-82
2021/11/10 09:06:34;;;;;;;;;;;;;;;12.31;100.00;101485.88;4996561;24;19925;-81
2021/11/10 09:09:00;;;;;;;;;;;;;;;11.98;100.00;101490.94;4843327;29;19921;-82
2021/11/10 09:11:25;;;;;;;;;;;;;;;11.92;100.00;101500.66;4843854;29;19913;-81
2021/11/10 09:13:51;;;;;;;;;;;;;;;12.03;100.00;101499.31;4847126;29;19920;-83
2021/11/10 09:16:16;;;;;;;;;;;;;;;12.08;100.00;101502.25;4815698;29;19921;-81
2021/11/10 09:18:42;;;;;;;;;;;;;;;12.18;100.00;101507.34;4847757;29;19935;-82
2021/11/10 09:21:09;;;;;;;;;;;;;;;12.46;100.00;101512.81;4847372;29;20007;-81
2021/11/10 09:23:35;;;;;;;;;;;;;;;12.56;100.00;101515.19;4848131;29;19905;-82
2021/11/10 09:26:00;;;;;;;;;;;;;;;12.61;100.00;101516.25;4832364;29;19920;-82
2021/11/10 09:28:26;;;;;;;;;;;;;;;12.63;100.00;101532.25;4857970;29;19920;-82
2021/11/10 09:30:54;;;;;;;;;;;;;;;12.61;100.00;101532.44;4858563;29;19916;-82
2021/11/10 09:33:20;;;;;;;;;;;;;;;12.63;100.00;101541.19;4820299;29;19917;-82
2021/11/10 09:35:46;;;;;;;;;;;;;;;12.61;100.00;101540.53;4833874;29;19909;-81
2021/11/10 09:38:12;;;;;;;;;;;;;;;12.60;100.00;101544.28;4854660;29;19932;-82
2021/11/10 09:40:38;;;;;;;;;;;;;;;12.60;100.00;101540.75;4847729;29;19923;-82
2021/11/10 09:43:04;;;;;;;;;;;;;;;12.62;100.00;101547.63;4845143;29;19921;-82
2021/11/10 09:45:32;;;;;;;;;;;;;;;12.60;100.00;101546.97;4859199;29;19900;-81
2021/11/10 09:47:58;;;;;;;;;;;;;;;12.61;100.00;101528.91;4862814;29;19928;-81
2021/11/10 09:50:26;;;;;;;;;;;;;;;12.60;100.00;101535.34;4852186;29;19900;-82
2021/11/10 09:52:52;;;;;;;;;;;;;;;12.50;100.00;101535.66;4848427;29;19927;-81
2021/11/10 09:55:19;;;;;;;;;;;;;;;12.48;100.00;101542.28;4852064;29;19920;-82
2021/11/10 09:57:45;;;;;;;;;;;;;;;12.40;100.00;101537.88;4855018;29;19912;-82
2021/11/10 10:00:13;;;;;;;;;;;;;;;12.35;100.00;101543.00;4854179;29;19900;-81
2021/11/10 10:02:39;;;;;;;;;;;;;;;12.36;100.00;101539.28;4855018;29;19897;-82
2021/11/10 10:05:05;;;;;;;;;;;;;;;12.33;100.00;101545.91;4843071;29;19932;-82
2021/11/10 10:07:30;;;;;;;;;;;;;;;12.37;100.00;101541.78;4846150;29;19946;-81
2021/11/10 10:09:55;;;;;;;;;;;;;;;12.42;100.00;101544.75;4844610;29;19976;-82
2021/11/10 10:12:21;;;;;;;;;;;;;;;12.45;100.00;101533.56;4848996;29;19916;-82
2021/11/10 10:14:47;;;;;;;;;;;;;;;12.46;100.00;101534.41;4846872;29;19928;-82
2021/11/10 10:17:29;;;;;;;;;;;;;;;12.53;100.00;101539.84;4855378;29;19912;-81
2021/11/10 10:19:54;;;;;;;;;;;;;;;12.57;100.00;101549.22;4859481;29;19983;-81
2021/11/10 10:22:19;;;;;;;;;;;;;;;12.56;100.00;101548.41;4858379;29;20011;-80
2021/11/10 10:24:46;;;;;;;;;;;;;;;12.56;100.00;101561.06;4858253;29;20331;-82
2021/11/10 10:27:31;;;;;;;;;;;;;;;12.73;100.00;101564.34;4839945;29;19913;-82
2021/11/10 10:30:16;;;;;;;;;;;;;;;12.79;100.00;101559.00;4866813;29;19908;-81
2021/11/10 10:32:41;;;;;;;;;;;;;;;12.86;100.00;101554.47;4865626;29;19909;-83
2021/11/10 10:35:25;;;;;;;;;;;;;;;12.94;100.00;101570.50;4863788;29;19980;-81
2021/11/10 10:37:51;;;;;;;;;;;;;;;12.89;100.00;101561.34;4839051;29;19947;-81
2021/11/10 10:40:16;;;;;;;;;;;;;;;12.86;100.00;101572.53;4843105;29;19917;-81
2021/11/10 10:42:42;;;;;;;;;;;;;;;12.82;100.00;101577.50;4843199;29;19921;-82
2021/11/10 10:45:24;;;;;;;;;;;;;;;12.90;100.00;101574.66;4836798;29;19925;-81
2021/11/10 10:48:00;;;;;;;;;;;;;;;12.93;100.00;101576.97;4841457;29;20012;-80
2021/11/10 10:50:44;;;;;;;;;;;;;;;12.81;100.00;101580.38;4854297;29;19924;-80
2021/11/10 10:53:13;;;;;;;;;;;;;;;12.70;100.00;101584.44;4847249;29;19912;-79
2021/11/10 10:55:40;;;;;;;;;;;;;;;12.67;100.00;101577.56;4846469;29;19990;-80
2021/11/10 10:58:07;;;;;;;;;;;;;;;12.69;100.00;101585.50;4839620;29;19923;-79
2021/11/10 11:00:33;;;;;;;;;;;;;;;12.63;100.00;101579.00;4831711;29;19921;-80
2021/11/10 11:03:18;;;;;;;;;;;;;;;12.75;100.00;101575.75;4822456;29;19924;-80
2021/11/10 11:05:43;;;;;;;;;;;;;;;12.74;100.00;101569.53;4832500;29;19964;-79
2021/11/10 11:08:28;;;;;;;;;;;;;;;12.69;100.00;101566.59;4830800;29;19921;-79
2021/11/10 11:10:58;;;;;;;;;;;;;;;12.68;100.00;101573.00;4840154;29;19955;-80
2021/11/10 11:13:44;;;;;;;;;;;;;;;12.76;100.00;101572.03;4827138;29;20031;-80
2021/11/10 11:16:09;;;;;;;;;;;;;;;12.84;100.00;101571.88;4836097;29;19912;-79
2021/11/10 11:18:36;;;;;;;;;;;;;;;12.91;100.00;101567.38;4839663;29;19916;-78
2021/11/10 11:21:20;;;;;;;;;;;;;;;13.00;100.00;101573.47;4816855;29;19916;-79
2021/11/10 11:23:45;;;;;;;;;;;;;;;12.99;100.00;101578.06;4831616;29;19916;-80
2021/11/10 11:26:29;;;;;;;;;;;;;;;13.07;100.00;101583.28;4832893;29;19989;-79
2021/11/10 11:28:56;;;;;;;;;;;;;;;13.05;100.00;101588.06;4829245;29;19973;-79
2021/11/10 11:31:29;;;;;;;;;;;;;;;12.97;100.00;101588.22;4836065;29;19963;-79
2021/11/10 11:33:56;;;;;;;;;;;;;;;12.98;100.00;101594.44;4826714;29;19957;-79
2021/11/10 11:36:21;;;;;;;;;;;;;;;12.90;100.00;101600.84;4826785;29;19935;-79
2021/11/10 11:38:46;;;;;;;;;;;;;;;12.79;100.00;101593.25;4835449;29;19917;-79
2021/11/10 11:41:16;;;;;;;;;;;;;;;12.70;100.00;101595.25;4839685;29;20015;-79
2021/11/10 11:43:41;;;;;;;;;;;;;;;12.58;100.00;101581.44;4837918;29;19924;-80
2021/11/10 11:46:07;;;;;;;;;;;;;;;12.53;100.00;101594.69;4837543;29;19968;-80
2021/11/10 11:48:33;;;;;;;;;;;;;;;12.53;100.00;101591.97;4818157;29;19928;-79
2021/11/10 11:51:03;;;;;;;;;;;;;;;12.54;100.00;101588.25;4826281;29;20413;-79
2021/11/10 11:53:30;;;;;;;;;;;;;;;12.53;100.00;101600.09;4841874;29;19916;-79
2021/11/10 11:55:58;;;;;;;;;;;;;;;12.53;100.00;101610.03;4840621;29;19999;-79
2021/11/10 11:58:31;;;;;;;;;;;;;;;12.54;100.00;101609.00;4829252;29;19963;-78
2021/11/10 12:01:03;;;;;;;;;;;;;;;12.48;100.00;101604.38;4836933;29;19952;-78
2021/11/10 12:03:36;;;;;;;;;;;;;;;12.47;100.00;101614.34;4811259;29;20264;-78
2021/11/10 12:06:01;;;;;;;;;;;;;;;12.53;100.00;101607.34;4822996;29;20372;-78
2021/11/10 12:08:45;;;;;;;;;;;;;;;12.53;100.00;101607.34;4827328;29;19963;-78
2021/11/10 12:11:20;;;;;;;;;;;;;;;12.50;100.00;101605.88;4824920;29;19925;-78
2021/11/10 12:14:04;;;;;;;;;;;;;;;12.56;100.00;101609.66;4824877;29;19924;-78
2021/11/10 12:16:43;;;;;;;;;;;;;;;12.58;100.00;101594.94;4824745;29;19916;-78
2021/11/10 12:19:08;;;;;;;;;;;;;;;12.63;100.00;101597.06;4825329;29;19913;-77
2021/11/10 12:21:35;;;;;;;;;;;;;;;12.60;100.00;101595.56;4827312;29;19920;-78
2021/11/10 12:24:11;;;;;;;;;;;;;;;12.61;100.00;101599.09;4825986;29;19935;-78
2021/11/10 12:26:55;;;;;;;;;;;;;;;12.63;100.00;101610.56;4831070;29;19933;-79
2021/11/10 12:29:37;;;;;;;;;;;;;;;12.56;100.00;101605.09;4842412;29;19924;-78
2021/11/10 12:32:03;;;;;;;;;;;;;;;12.60;100.00;101606.38;4818769;29;19913;-78
2021/11/10 12:34:29;;;;;;;;;;;;;;;12.60;100.00;101603.69;4828640;29;19928;-78
2021/11/10 12:36:56;;;;;;;;;;;;;;;12.57;100.00;101611.31;4823669;29;19917;-79
2021/11/10 12:39:31;;;;;;;;;;;;;;;12.58;100.00;101603.06;4827035;29;20260;-77
2021/11/10 12:42:04;;;;;;;;;;;;;;;12.58;100.00;101611.16;4827259;29;19916;-78